sensor_id;sensor_type;location;lat;lon;timestamp;pressure;altitude;pressure_sealevel;temperature
15144;BMP180;7672;50.834;6.286;2023-07-31T00:00:16;99392.25;;;19.96
15144;BMP180;7672;50.834;6.286;2023-07-31T00:02:43;99381.19;;;19.95
15144;BMP180;7672;50.834;6.286;2023-07-31T00:05:10;99388.94;;;19.94
15144;BMP180;7672;50.834;6.286;2023-07-31T00:07:37;99388.06;;;19.93
15144;BMP180;7672;50.834;6.286;2023-07-31T00:10:04;99396.56;;;19.95
15144;BMP180;7672;50.834;6.286;2023-07-31T00:12:31;99385.50;;;19.93
15144;BMP180;7672;50.834;6.286;2023-07-31T00:14:59;99391.50;;;19.94
15144;BMP180;7672;50.834;6.286;2023-07-31T00:17:26;99371.88;;;19.93
15144;BMP180;7672;50.834;6.286;2023-07-31T00:19:53;99377.00;;;19.93
15144;BMP180;7672;50.834;6.286;2023-07-31T00:22:20;99379.56;;;19.93
15144;BMP180;7672;50.834;6.286;2023-07-31T00:24:47;99380.44;;;19.92
15144;BMP180;7672;50.834;6.286;2023-07-31T00:27:15;99389.88;;;19.91
15144;BMP180;7672;50.834;6.286;2023-07-31T00:29:43;99384.75;;;19.91
15144;BMP180;7672;50.834;6.286;2023-07-31T00:32:10;99378.81;;;19.89
15144;BMP180;7672;50.834;6.286;2023-07-31T00:34:37;99382.22;;;19.90
15144;BMP180;7672;50.834;6.286;2023-07-31T00:37:05;99387.34;;;19.90
15144;BMP180;7672;50.834;6.286;2023-07-31T00:39:34;99370.28;;;19.89
15144;BMP180;7672;50.834;6.286;2023-07-31T00:42:02;99378.94;;;19.86
15144;BMP180;7672;50.834;6.286;2023-07-31T00:44:29;99378.06;;;19.86
15144;BMP180;7672;50.834;6.286;2023-07-31T00:46:56;99367.88;;;19.84
15144;BMP180;7672;50.834;6.286;2023-07-31T00:49:26;99374.75;;;19.84
15144;BMP180;7672;50.834;6.286;2023-07-31T00:51:55;99364.56;;;19.83
15144;BMP180;7672;50.834;6.286;2023-07-31T00:54:25;99362.00;;;19.83
15144;BMP180;7672;50.834;6.286;2023-07-31T00:56:54;99361.88;;;19.85
15144;BMP180;7672;50.834;6.286;2023-07-31T00:59:21;99349.09;;;19.84
15144;BMP180;7672;50.834;6.286;2023-07-31T01:01:49;99355.91;;;19.85
15144;BMP180;7672;50.834;6.286;2023-07-31T01:04:17;99356.81;;;19.84
15144;BMP180;7672;50.834;6.286;2023-07-31T01:07:02;99354.16;;;19.85
15144;BMP180;7672;50.834;6.286;2023-07-31T01:12:28;99354.22;;;19.84
15144;BMP180;7672;50.834;6.286;2023-07-31T01:15:06;99354.97;;;19.87
15144;BMP180;7672;50.834;6.286;2023-07-31T01:17:34;99340.31;;;19.91
15144;BMP180;7672;50.834;6.286;2023-07-31T01:20:05;99336.72;;;19.95
15144;BMP180;7672;50.834;6.286;2023-07-31T01:29:01;99339.28;;;19.95
15144;BMP180;7672;50.834;6.286;2023-07-31T01:31:32;99339.25;;;19.96
15144;BMP180;7672;50.834;6.286;2023-07-31T01:34:01;99339.13;;;19.99
15144;BMP180;7672;50.834;6.286;2023-07-31T01:36:30;99334.78;;;20.01
15144;BMP180;7672;50.834;6.286;2023-07-31T01:39:00;99335.53;;;20.03
15144;BMP180;7672;50.834;6.286;2023-07-31T01:41:27;99342.22;;;20.07
15144;BMP180;7672;50.834;6.286;2023-07-31T01:43:55;99337.00;;;20.09
15144;BMP180;7672;50.834;6.286;2023-07-31T01:46:23;99336.03;;;20.13
15144;BMP180;7672;50.834;6.286;2023-07-31T01:48:50;99338.44;;;20.16
15144;BMP180;7672;50.834;6.286;2023-07-31T01:51:18;99332.44;;;20.17
15144;BMP180;7672;50.834;6.286;2023-07-31T01:53:45;99322.09;;;20.18
15144;BMP180;7672;50.834;6.286;2023-07-31T01:56:12;99323.72;;;20.21
15144;BMP180;7672;50.834;6.286;2023-07-31T01:58:39;99318.50;;;20.22
15144;BMP180;7672;50.834;6.286;2023-07-31T02:01:07;99324.44;;;20.24
15144;BMP180;7672;50.834;6.286;2023-07-31T02:03:34;99315.81;;;20.25
15144;BMP180;7672;50.834;6.286;2023-07-31T02:06:01;99308.06;;;20.27
15144;BMP180;7672;50.834;6.286;2023-07-31T02:08:28;99324.22;;;20.29
15144;BMP180;7672;50.834;6.286;2023-07-31T02:10:56;99313.06;;;20.30
15144;BMP180;7672;50.834;6.286;2023-07-31T02:13:23;99302.81;;;20.30
15144;BMP180;7672;50.834;6.286;2023-07-31T02:15:50;99301.84;;;20.32
15144;BMP180;7672;50.834;6.286;2023-07-31T02:18:17;99296.66;;;20.34
15144;BMP180;7672;50.834;6.286;2023-07-31T02:20:50;99300.81;;;20.36
15144;BMP180;7672;50.834;6.286;2023-07-31T02:23:18;99294.72;;;20.39
15144;BMP180;7672;50.834;6.286;2023-07-31T02:25:46;99303.22;;;20.41
15144;BMP180;7672;50.834;6.286;2023-07-31T02:28:14;99297.13;;;20.43
15144;BMP180;7672;50.834;6.286;2023-07-31T02:30:44;99291.97;;;20.43
15144;BMP180;7672;50.834;6.286;2023-07-31T02:33:14;99288.50;;;20.44
15144;BMP180;7672;50.834;6.286;2023-07-31T02:35:41;99291.06;;;20.44
15144;BMP180;7672;50.834;6.286;2023-07-31T02:38:08;99287.59;;;20.45
15144;BMP180;7672;50.834;6.286;2023-07-31T02:40:35;99282.41;;;20.47
15144;BMP180;7672;50.834;6.286;2023-07-31T02:43:02;99283.25;;;20.47
15144;BMP180;7672;50.834;6.286;2023-07-31T02:45:29;99280.63;;;20.48
15144;BMP180;7672;50.834;6.286;2023-07-31T02:47:57;99283.09;;;20.50
15144;BMP180;7672;50.834;6.286;2023-07-31T02:50:24;99281.44;;;20.49
15144;BMP180;7672;50.834;6.286;2023-07-31T02:52:51;99281.44;;;20.49
15144;BMP180;7672;50.834;6.286;2023-07-31T02:55:18;99271.16;;;20.49
15144;BMP180;7672;50.834;6.286;2023-07-31T02:57:45;99267.72;;;20.50
15144;BMP180;7672;50.834;6.286;2023-07-31T03:00:12;99274.53;;;20.51
15144;BMP180;7672;50.834;6.286;2023-07-31T03:02:39;99262.56;;;20.50
15144;BMP180;7672;50.834;6.286;2023-07-31T03:05:07;99265.94;;;20.52
15144;BMP180;7672;50.834;6.286;2023-07-31T03:07:34;99267.53;;;20.54
15144;BMP180;7672;50.834;6.286;2023-07-31T03:10:01;99267.47;;;20.56
15144;BMP180;7672;50.834;6.286;2023-07-31T03:12:29;99269.13;;;20.57
15144;BMP180;7672;50.834;6.286;2023-07-31T03:14:56;99260.56;;;20.56
15144;BMP180;7672;50.834;6.286;2023-07-31T03:17:23;99256.16;;;20.60
15144;BMP180;7672;50.834;6.286;2023-07-31T03:19:50;99260.41;;;20.61
15144;BMP180;7672;50.834;6.286;2023-07-31T03:22:17;99261.22;;;20.61
15144;BMP180;7672;50.834;6.286;2023-07-31T03:24:44;99266.28;;;20.63
15144;BMP180;7672;50.834;6.286;2023-07-31T03:27:11;99261.94;;;20.65
15144;BMP180;7672;50.834;6.286;2023-07-31T03:29:38;99258.47;;;20.66
15144;BMP180;7672;50.834;6.286;2023-07-31T03:32:06;99255.84;;;20.67
15144;BMP180;7672;50.834;6.286;2023-07-31T03:34:33;99260.06;;;20.68
15144;BMP180;7672;50.834;6.286;2023-07-31T03:37:01;99254.97;;;20.67
15144;BMP180;7672;50.834;6.286;2023-07-31T03:39:30;99244.66;;;20.68
15144;BMP180;7672;50.834;6.286;2023-07-31T03:41:57;99241.16;;;20.69
15144;BMP180;7672;50.834;6.286;2023-07-31T03:44:24;99243.81;;;20.68
15144;BMP180;7672;50.834;6.286;2023-07-31T03:46:51;99249.00;;;20.66
15144;BMP180;7672;50.834;6.286;2023-07-31T03:49:19;99249.84;;;20.67
15144;BMP180;7672;50.834;6.286;2023-07-31T03:51:46;99249.00;;;20.66
15144;BMP180;7672;50.834;6.286;2023-07-31T03:54:13;99240.41;;;20.67
15144;BMP180;7672;50.834;6.286;2023-07-31T03:56:40;99235.28;;;20.67
15144;BMP180;7672;50.834;6.286;2023-07-31T03:59:08;99236.03;;;20.69
15144;BMP180;7672;50.834;6.286;2023-07-31T04:01:35;99229.25;;;20.68
15144;BMP180;7672;50.834;6.286;2023-07-31T04:04:03;99228.28;;;20.71
15144;BMP180;7672;50.834;6.286;2023-07-31T04:06:30;99226.50;;;20.73
15144;BMP180;7672;50.834;6.286;2023-07-31T04:08:57;99218.78;;;20.73
15144;BMP180;7672;50.834;6.286;2023-07-31T04:11:24;99222.19;;;20.73
15144;BMP180;7672;50.834;6.286;2023-07-31T04:13:51;99225.69;;;20.72
15144;BMP180;7672;50.834;6.286;2023-07-31T04:16:18;99219.66;;;20.72
15144;BMP180;7672;50.834;6.286;2023-07-31T04:18:45;99227.28;;;20.75
15144;BMP180;7672;50.834;6.286;2023-07-31T04:21:12;99221.22;;;20.76
15144;BMP180;7672;50.834;6.286;2023-07-31T04:23:39;99219.44;;;20.78
15144;BMP180;7672;50.834;6.286;2023-07-31T04:26:06;99210.91;;;20.77
15144;BMP180;7672;50.834;6.286;2023-07-31T04:28:33;99212.56;;;20.78
15144;BMP180;7672;50.834;6.286;2023-07-31T04:31:01;99211.72;;;20.78
15144;BMP180;7672;50.834;6.286;2023-07-31T04:33:28;99204.84;;;20.78
15144;BMP180;7672;50.834;6.286;2023-07-31T04:35:55;99210.75;;;20.80
15144;BMP180;7672;50.834;6.286;2023-07-31T04:38:22;99207.28;;;20.81
15144;BMP180;7672;50.834;6.286;2023-07-31T04:40:49;99209.78;;;20.83
15144;BMP180;7672;50.834;6.286;2023-07-31T04:43:17;99202.16;;;20.81
15144;BMP180;7672;50.834;6.286;2023-07-31T04:45:47;99202.97;;;20.82
15144;BMP180;7672;50.834;6.286;2023-07-31T04:48:15;99200.41;;;20.82
15144;BMP180;7672;50.834;6.286;2023-07-31T04:50:42;99201.25;;;20.82
15144;BMP180;7672;50.834;6.286;2023-07-31T04:53:09;99191.75;;;20.84
15144;BMP180;7672;50.834;6.286;2023-07-31T04:55:36;99199.28;;;20.87
15144;BMP180;7672;50.834;6.286;2023-07-31T04:58:03;99188.81;;;20.92
15144;BMP180;7672;50.834;6.286;2023-07-31T05:00:30;99190.34;;;20.96
15144;BMP180;7672;50.834;6.286;2023-07-31T05:02:57;99188.47;;;20.99
15144;BMP180;7672;50.834;6.286;2023-07-31T05:05:24;99193.41;;;21.04
15144;BMP180;7672;50.834;6.286;2023-07-31T05:07:51;99189.84;;;21.06
15144;BMP180;7672;50.834;6.286;2023-07-31T05:10:19;99187.97;;;21.10
15144;BMP180;7672;50.834;6.286;2023-07-31T05:12:46;99181.06;;;21.12
15144;BMP180;7672;50.834;6.286;2023-07-31T05:15:13;99174.94;;;21.14
15144;BMP180;7672;50.834;6.286;2023-07-31T05:17:42;99179.16;;;21.15
15144;BMP180;7672;50.834;6.286;2023-07-31T05:20:13;99168.75;;;21.18
15144;BMP180;7672;50.834;6.286;2023-07-31T05:22:40;99162.75;;;21.17
15144;BMP180;7672;50.834;6.286;2023-07-31T05:25:07;99170.44;;;21.19
15144;BMP180;7672;50.834;6.286;2023-07-31T05:27:35;99157.50;;;21.20
15144;BMP180;7672;50.834;6.286;2023-07-31T05:30:03;99152.34;;;21.20
15144;BMP180;7672;50.834;6.286;2023-07-31T05:32:31;99158.41;;;21.19
15144;BMP180;7672;50.834;6.286;2023-07-31T05:34:58;99152.44;;;21.19
15144;BMP180;7672;50.834;6.286;2023-07-31T05:37:25;99152.47;;;21.17
15144;BMP180;7672;50.834;6.286;2023-07-31T05:39:52;99146.69;;;21.14
15144;BMP180;7672;50.834;6.286;2023-07-31T05:42:19;99147.72;;;21.10
15144;BMP180;7672;50.834;6.286;2023-07-31T05:44:46;99144.59;;;21.04
15144;BMP180;7672;50.834;6.286;2023-07-31T05:47:13;99138.97;;;20.96
15144;BMP180;7672;50.834;6.286;2023-07-31T05:49:41;99134.97;;;20.90
15144;BMP180;7672;50.834;6.286;2023-07-31T05:52:08;99131.78;;;20.85
15144;BMP180;7672;50.834;6.286;2023-07-31T05:54:35;99133.72;;;20.80
15144;BMP180;7672;50.834;6.286;2023-07-31T05:57:02;99127.06;;;20.76
15144;BMP180;7672;50.834;6.286;2023-07-31T05:59:29;99127.13;;;20.75
15144;BMP180;7672;50.834;6.286;2023-07-31T06:01:59;99128.09;;;20.72
15144;BMP180;7672;50.834;6.286;2023-07-31T06:04:26;99111.88;;;20.70
15144;BMP180;7672;50.834;6.286;2023-07-31T06:06:54;99102.47;;;20.71
15144;BMP180;7672;50.834;6.286;2023-07-31T06:09:21;99113.56;;;20.71
15144;BMP180;7672;50.834;6.286;2023-07-31T06:11:48;99116.91;;;20.73
15144;BMP180;7672;50.834;6.286;2023-07-31T06:14:15;99110.78;;;20.76
15144;BMP180;7672;50.834;6.286;2023-07-31T06:16:44;99107.13;;;20.81
15144;BMP180;7672;50.834;6.286;2023-07-31T06:19:11;99096.63;;;20.86
15144;BMP180;7672;50.834;6.286;2023-07-31T06:21:38;99111.69;;;20.93
15144;BMP180;7672;50.834;6.286;2023-07-31T06:24:05;99102.81;;;21.00
15144;BMP180;7672;50.834;6.286;2023-07-31T06:26:32;99101.47;;;21.10
15144;BMP180;7672;50.834;6.286;2023-07-31T06:29:00;99110.38;;;21.20
15144;BMP180;7672;50.834;6.286;2023-07-31T06:31:27;99120.09;;;21.32
15144;BMP180;7672;50.834;6.286;2023-07-31T06:33:54;99121.16;;;21.45
15144;BMP180;7672;50.834;6.286;2023-07-31T06:36:21;99118.78;;;21.59
15144;BMP180;7672;50.834;6.286;2023-07-31T06:38:48;99114.78;;;21.70
15144;BMP180;7672;50.834;6.286;2023-07-31T06:41:15;99116.81;;;21.80
15144;BMP180;7672;50.834;6.286;2023-07-31T06:43:42;99103.44;;;21.91
15144;BMP180;7672;50.834;6.286;2023-07-31T06:46:09;99096.16;;;21.99
15144;BMP180;7672;50.834;6.286;2023-07-31T06:48:37;99103.31;;;22.09
15144;BMP180;7672;50.834;6.286;2023-07-31T06:51:04;99099.59;;;22.15
15144;BMP180;7672;50.834;6.286;2023-07-31T06:53:31;99099.38;;;22.19
15144;BMP180;7672;50.834;6.286;2023-07-31T06:55:58;99100.03;;;22.23
15144;BMP180;7672;50.834;6.286;2023-07-31T06:58:25;99111.16;;;22.23
15144;BMP180;7672;50.834;6.286;2023-07-31T07:00:52;99111.16;;;22.23
15144;BMP180;7672;50.834;6.286;2023-07-31T07:03:19;99114.63;;;22.22
15144;BMP180;7672;50.834;6.286;2023-07-31T07:05:47;99114.03;;;22.17
15144;BMP180;7672;50.834;6.286;2023-07-31T07:08:14;99108.16;;;22.15
15144;BMP180;7672;50.834;6.286;2023-07-31T07:10:41;99118.59;;;22.12
15144;BMP180;7672;50.834;6.286;2023-07-31T07:13:09;99112.63;;;22.12
15144;BMP180;7672;50.834;6.286;2023-07-31T07:15:36;99118.59;;;22.12
15144;BMP180;7672;50.834;6.286;2023-07-31T07:18:03;99114.28;;;22.13
15144;BMP180;7672;50.834;6.286;2023-07-31T07:20:30;99112.78;;;22.09
15144;BMP180;7672;50.834;6.286;2023-07-31T07:22:57;99103.63;;;22.03
15144;BMP180;7672;50.834;6.286;2023-07-31T07:25:24;99101.38;;;21.97
15144;BMP180;7672;50.834;6.286;2023-07-31T07:27:51;99090.63;;;21.89
15144;BMP180;7672;50.834;6.286;2023-07-31T07:30:18;99091.94;;;21.81
15144;BMP180;7672;50.834;6.286;2023-07-31T07:32:46;99080.97;;;21.77
15144;BMP180;7672;50.834;6.286;2023-07-31T07:35:14;99086.13;;;21.77
15144;BMP180;7672;50.834;6.286;2023-07-31T07:37:41;99089.41;;;21.79
15144;BMP180;7672;50.834;6.286;2023-07-31T07:40:08;99088.13;;;21.88
15144;BMP180;7672;50.834;6.286;2023-07-31T07:42:36;99085.19;;;21.95
15144;BMP180;7672;50.834;6.286;2023-07-31T07:45:03;99097.50;;;22.06
15144;BMP180;7672;50.834;6.286;2023-07-31T07:47:31;99093.84;;;22.10
15144;BMP180;7672;50.834;6.286;2023-07-31T07:49:58;99092.13;;;22.10
15144;BMP180;7672;50.834;6.286;2023-07-31T07:52:25;99082.66;;;22.11
15144;BMP180;7672;50.834;6.286;2023-07-31T07:54:52;99087.66;;;22.14
15144;BMP180;7672;50.834;6.286;2023-07-31T07:57:19;99080.53;;;22.19
15144;BMP180;7672;50.834;6.286;2023-07-31T07:59:46;99069.84;;;22.26
15144;BMP180;7672;50.834;6.286;2023-07-31T08:02:13;99064.88;;;22.38
15144;BMP180;7672;50.834;6.286;2023-07-31T08:04:40;99057.09;;;22.55
15144;BMP180;7672;50.834;6.286;2023-07-31T08:07:07;99063.06;;;22.71
15144;BMP180;7672;50.834;6.286;2023-07-31T08:09:34;99065.50;;;22.90
15144;BMP180;7672;50.834;6.286;2023-07-31T08:12:01;99058.66;;;23.04
15144;BMP180;7672;50.834;6.286;2023-07-31T08:14:30;99054.16;;;23.23
15144;BMP180;7672;50.834;6.286;2023-07-31T08:17:00;99044.34;;;23.43
15144;BMP180;7672;50.834;6.286;2023-07-31T08:19:27;99048.91;;;23.67
15144;BMP180;7672;50.834;6.286;2023-07-31T08:21:54;99051.56;;;24.09
15144;BMP180;7672;50.834;6.286;2023-07-31T08:24:24;99035.78;;;24.55
15144;BMP180;7672;50.834;6.286;2023-07-31T08:26:51;99056.94;;;24.88
15144;BMP180;7672;50.834;6.286;2023-07-31T08:29:18;99055.84;;;25.04
15144;BMP180;7672;50.834;6.286;2023-07-31T08:31:45;99056.31;;;25.11
15144;BMP180;7672;50.834;6.286;2023-07-31T08:34:12;99062.53;;;25.08
15144;BMP180;7672;50.834;6.286;2023-07-31T08:36:39;99052.63;;;25.01
15144;BMP180;7672;50.834;6.286;2023-07-31T08:39:07;99053.22;;;24.92
15144;BMP180;7672;50.834;6.286;2023-07-31T08:41:38;99062.38;;;24.84
15144;BMP180;7672;50.834;6.286;2023-07-31T08:44:07;99059.66;;;24.73
15144;BMP180;7672;50.834;6.286;2023-07-31T08:46:35;99062.50;;;24.68
15144;BMP180;7672;50.834;6.286;2023-07-31T08:49:04;99068.97;;;24.61
15144;BMP180;7672;50.834;6.286;2023-07-31T08:51:36;99069.38;;;24.55
15144;BMP180;7672;50.834;6.286;2023-07-31T08:54:03;99070.56;;;24.50
15144;BMP180;7672;50.834;6.286;2023-07-31T08:56:34;99062.91;;;24.48
15144;BMP180;7672;50.834;6.286;2023-07-31T08:59:05;99068.16;;;24.47
15144;BMP180;7672;50.834;6.286;2023-07-31T09:01:37;99062.91;;;24.48
15144;BMP180;7672;50.834;6.286;2023-07-31T09:04:09;99073.63;;;24.56
15144;BMP180;7672;50.834;6.286;2023-07-31T09:06:38;99068.59;;;24.67
15144;BMP180;7672;50.834;6.286;2023-07-31T09:09:06;99073.28;;;24.75
15144;BMP180;7672;50.834;6.286;2023-07-31T09:11:33;99060.09;;;24.79
15144;BMP180;7672;50.834;6.286;2023-07-31T09:14:01;99073.72;;;24.81
15144;BMP180;7672;50.834;6.286;2023-07-31T09:16:35;99071.69;;;24.86
15144;BMP180;7672;50.834;6.286;2023-07-31T09:19:02;99069.97;;;24.99
15144;BMP180;7672;50.834;6.286;2023-07-31T09:21:30;99064.50;;;25.17
15144;BMP180;7672;50.834;6.286;2023-07-31T09:23:57;99063.47;;;25.46
15144;BMP180;7672;50.834;6.286;2023-07-31T09:26:36;99054.94;;;25.83
15144;BMP180;7672;50.834;6.286;2023-07-31T09:29:06;99057.91;;;26.26
15144;BMP180;7672;50.834;6.286;2023-07-31T09:31:42;99051.56;;;26.55
15144;BMP180;7672;50.834;6.286;2023-07-31T09:34:10;99036.78;;;26.68
15144;BMP180;7672;50.834;6.286;2023-07-31T09:36:49;99046.84;;;26.73
15144;BMP180;7672;50.834;6.286;2023-07-31T09:39:17;99050.38;;;26.72
15144;BMP180;7672;50.834;6.286;2023-07-31T09:41:55;99046.53;;;26.65
15144;BMP180;7672;50.834;6.286;2023-07-31T09:44:40;99035.69;;;26.60
15144;BMP180;7672;50.834;6.286;2023-07-31T09:47:24;99023.31;;;26.63
15144;BMP180;7672;50.834;6.286;2023-07-31T09:49:52;99037.03;;;26.65
15144;BMP180;7672;50.834;6.286;2023-07-31T09:52:19;99043.75;;;26.68
15144;BMP180;7672;50.834;6.286;2023-07-31T09:54:47;99043.53;;;26.71
15144;BMP180;7672;50.834;6.286;2023-07-31T09:57:16;99049.59;;;26.82
15144;BMP180;7672;50.834;6.286;2023-07-31T09:59:47;99044.91;;;26.99
15144;BMP180;7672;50.834;6.286;2023-07-31T10:02:21;99046.97;;;27.18
15144;BMP180;7672;50.834;6.286;2023-07-31T10:04:57;99038.38;;;27.51
15144;BMP180;7672;50.834;6.286;2023-07-31T10:07:28;99048.88;;;27.95
15144;BMP180;7672;50.834;6.286;2023-07-31T10:10:00;99052.78;;;28.22
15144;BMP180;7672;50.834;6.286;2023-07-31T10:12:33;99048.31;;;28.46
15144;BMP180;7672;50.834;6.286;2023-07-31T10:15:02;99052.91;;;28.54
15144;BMP180;7672;50.834;6.286;2023-07-31T10:17:31;99043.09;;;28.46
15144;BMP180;7672;50.834;6.286;2023-07-31T10:20:02;99049.50;;;28.42
15144;BMP180;7672;50.834;6.286;2023-07-31T10:22:32;99049.75;;;28.39
15144;BMP180;7672;50.834;6.286;2023-07-31T10:25:04;99056.47;;;28.31
15144;BMP180;7672;50.834;6.286;2023-07-31T10:27:36;99057.66;;;28.16
15144;BMP180;7672;50.834;6.286;2023-07-31T10:30:08;99046.75;;;28.00
15144;BMP180;7672;50.834;6.286;2023-07-31T10:32:39;99055.91;;;27.82
15144;BMP180;7672;50.834;6.286;2023-07-31T10:35:08;99054.38;;;27.69
15144;BMP180;7672;50.834;6.286;2023-07-31T10:37:39;99061.19;;;27.59
15144;BMP180;7672;50.834;6.286;2023-07-31T10:40:18;99054.38;;;27.45
15144;BMP180;7672;50.834;6.286;2023-07-31T10:42:54;99057.75;;;27.24
15144;BMP180;7672;50.834;6.286;2023-07-31T10:45:42;99054.44;;;26.99
15144;BMP180;7672;50.834;6.286;2023-07-31T10:48:14;99041.63;;;26.85
15144;BMP180;7672;50.834;6.286;2023-07-31T10:53:30;99046.06;;;26.60
15144;BMP180;7672;50.834;6.286;2023-07-31T10:56:05;99031.97;;;26.51
15144;BMP180;7672;50.834;6.286;2023-07-31T10:58:32;99034.88;;;26.47
15144;BMP180;7672;50.834;6.286;2023-07-31T11:01:02;99028.53;;;26.51
15144;BMP180;7672;50.834;6.286;2023-07-31T11:03:50;99015.56;;;26.86
15144;BMP180;7672;50.834;6.286;2023-07-31T11:06:19;99027.28;;;27.49
15144;BMP180;7672;50.834;6.286;2023-07-31T11:08:50;99011.91;;;28.13
15144;BMP180;7672;50.834;6.286;2023-07-31T11:11:19;99023.50;;;28.53
15144;BMP180;7672;50.834;6.286;2023-07-31T11:13:52;99027.00;;;28.63
15144;BMP180;7672;50.834;6.286;2023-07-31T11:16:25;99027.03;;;28.52
15144;BMP180;7672;50.834;6.286;2023-07-31T11:18:53;99026.69;;;28.35
15144;BMP180;7672;50.834;6.286;2023-07-31T11:21:24;99016.06;;;28.16
15144;BMP180;7672;50.834;6.286;2023-07-31T11:23:56;99033.75;;;28.11
15144;BMP180;7672;50.834;6.286;2023-07-31T11:26:25;99031.75;;;28.14
15144;BMP180;7672;50.834;6.286;2023-07-31T11:28:52;99035.41;;;28.12
15144;BMP180;7672;50.834;6.286;2023-07-31T11:31:19;99030.31;;;28.00
15144;BMP180;7672;50.834;6.286;2023-07-31T11:33:47;99037.38;;;27.76
15144;BMP180;7672;50.834;6.286;2023-07-31T11:36:17;99027.75;;;27.54
15144;BMP180;7672;50.834;6.286;2023-07-31T11:38:48;99014.59;;;27.34
15144;BMP180;7672;50.834;6.286;2023-07-31T11:41:16;99019.47;;;27.15
15144;BMP180;7672;50.834;6.286;2023-07-31T11:43:46;99022.47;;;26.98
15144;BMP180;7672;50.834;6.286;2023-07-31T11:46:14;99011.22;;;26.87
15144;BMP180;7672;50.834;6.286;2023-07-31T11:48:42;99010.94;;;26.79
15144;BMP180;7672;50.834;6.286;2023-07-31T11:51:12;99016.66;;;26.72
15144;BMP180;7672;50.834;6.286;2023-07-31T11:53:49;99001.03;;;26.61
15144;BMP180;7672;50.834;6.286;2023-07-31T11:56:19;99010.41;;;26.51
15144;BMP180;7672;50.834;6.286;2023-07-31T11:58:52;99003.72;;;26.36
15144;BMP180;7672;50.834;6.286;2023-07-31T12:01:22;99009.09;;;26.20
15144;BMP180;7672;50.834;6.286;2023-07-31T12:03:50;99021.56;;;26.03
15144;BMP180;7672;50.834;6.286;2023-07-31T12:06:19;99014.13;;;25.86
15144;BMP180;7672;50.834;6.286;2023-07-31T12:08:48;99022.72;;;25.74
15144;BMP180;7672;50.834;6.286;2023-07-31T12:11:16;99024.22;;;25.64
15144;BMP180;7672;50.834;6.286;2023-07-31T12:13:45;99023.06;;;25.56
15144;BMP180;7672;50.834;6.286;2023-07-31T12:16:12;99008.09;;;25.49
15144;BMP180;7672;50.834;6.286;2023-07-31T12:18:39;99011.72;;;25.46
15144;BMP180;7672;50.834;6.286;2023-07-31T12:21:09;99009.94;;;25.47
15144;BMP180;7672;50.834;6.286;2023-07-31T12:23:38;98997.41;;;25.53
15144;BMP180;7672;50.834;6.286;2023-07-31T12:26:15;98996.69;;;25.63
15144;BMP180;7672;50.834;6.286;2023-07-31T12:28:50;98981.91;;;25.65
15144;BMP180;7672;50.834;6.286;2023-07-31T12:31:22;98985.19;;;25.67
15144;BMP180;7672;50.834;6.286;2023-07-31T12:33:51;98981.53;;;25.71
15144;BMP180;7672;50.834;6.286;2023-07-31T12:36:22;98978.41;;;25.79
15144;BMP180;7672;50.834;6.286;2023-07-31T12:38:54;98980.16;;;25.91
15144;BMP180;7672;50.834;6.286;2023-07-31T12:41:22;98988.31;;;25.97
15144;BMP180;7672;50.834;6.286;2023-07-31T12:43:49;98998.47;;;26.00
15144;BMP180;7672;50.834;6.286;2023-07-31T12:46:17;98996.91;;;25.98
15144;BMP180;7672;50.834;6.286;2023-07-31T12:48:44;98993.63;;;25.96
15144;BMP180;7672;50.834;6.286;2023-07-31T12:51:11;98973.84;;;25.95
15144;BMP180;7672;50.834;6.286;2023-07-31T12:53:38;98978.19;;;25.94
15144;BMP180;7672;50.834;6.286;2023-07-31T12:56:05;98956.53;;;25.95
15144;BMP180;7672;50.834;6.286;2023-07-31T12:58:32;98931.16;;;26.00
15144;BMP180;7672;50.834;6.286;2023-07-31T13:00:59;98914.97;;;26.09
15144;BMP180;7672;50.834;6.286;2023-07-31T13:03:28;98905.50;;;26.20
15144;BMP180;7672;50.834;6.286;2023-07-31T13:05:55;98893.34;;;26.33
15144;BMP180;7672;50.834;6.286;2023-07-31T13:08:22;98880.03;;;26.50
15144;BMP180;7672;50.834;6.286;2023-07-31T13:10:49;98877.84;;;26.68
15144;BMP180;7672;50.834;6.286;2023-07-31T13:13:16;98884.28;;;26.85
15144;BMP180;7672;50.834;6.286;2023-07-31T13:15:44;98884.72;;;27.03
15144;BMP180;7672;50.834;6.286;2023-07-31T13:18:11;98882.13;;;27.14
15144;BMP180;7672;50.834;6.286;2023-07-31T13:20:38;98892.53;;;27.25
15144;BMP180;7672;50.834;6.286;2023-07-31T13:23:05;98897.25;;;27.42
15144;BMP180;7672;50.834;6.286;2023-07-31T13:25:32;98879.84;;;27.65
15144;BMP180;7672;50.834;6.286;2023-07-31T13:27:59;98870.00;;;27.91
15144;BMP180;7672;50.834;6.286;2023-07-31T13:30:29;98878.47;;;28.14
15144;BMP180;7672;50.834;6.286;2023-07-31T13:32:56;98884.56;;;28.35
15144;BMP180;7672;50.834;6.286;2023-07-31T13:35:24;98889.25;;;28.52
15144;BMP180;7672;50.834;6.286;2023-07-31T13:37:51;98894.97;;;28.67
15144;BMP180;7672;50.834;6.286;2023-07-31T13:40:18;98896.63;;;28.78
15144;BMP180;7672;50.834;6.286;2023-07-31T13:42:45;98897.75;;;28.85
15144;BMP180;7672;50.834;6.286;2023-07-31T13:45:14;98905.28;;;28.88
15144;BMP180;7672;50.834;6.286;2023-07-31T13:47:41;98908.28;;;28.84
15144;BMP180;7672;50.834;6.286;2023-07-31T13:50:09;98903.09;;;28.73
15144;BMP180;7672;50.834;6.286;2023-07-31T13:52:36;98906.13;;;28.58
15144;BMP180;7672;50.834;6.286;2023-07-31T13:55:04;98902.88;;;28.45
15144;BMP180;7672;50.834;6.286;2023-07-31T13:57:31;98913.53;;;28.42
15144;BMP180;7672;50.834;6.286;2023-07-31T13:59:58;98913.38;;;28.43
15144;BMP180;7672;50.834;6.286;2023-07-31T14:02:25;98918.81;;;28.40
15144;BMP180;7672;50.834;6.286;2023-07-31T14:04:52;98921.22;;;28.32
15144;BMP180;7672;50.834;6.286;2023-07-31T14:07:19;98924.78;;;28.20
15144;BMP180;7672;50.834;6.286;2023-07-31T14:09:46;98918.75;;;28.09
15144;BMP180;7672;50.834;6.286;2023-07-31T14:12:13;98917.22;;;27.96
15144;BMP180;7672;50.834;6.286;2023-07-31T14:14:50;98918.53;;;27.79
15144;BMP180;7672;50.834;6.286;2023-07-31T14:17:17;98914.06;;;27.70
15144;BMP180;7672;50.834;6.286;2023-07-31T14:19:45;98914.03;;;27.59
15144;BMP180;7672;50.834;6.286;2023-07-31T14:22:12;98905.38;;;27.48
15144;BMP180;7672;50.834;6.286;2023-07-31T14:24:39;98901.16;;;27.36
15144;BMP180;7672;50.834;6.286;2023-07-31T14:27:06;98898.03;;;27.20
15144;BMP180;7672;50.834;6.286;2023-07-31T14:29:33;98894.72;;;27.07
15144;BMP180;7672;50.834;6.286;2023-07-31T14:32:00;98888.69;;;26.96
15144;BMP180;7672;50.834;6.286;2023-07-31T14:34:27;98883.53;;;26.83
15144;BMP180;7672;50.834;6.286;2023-07-31T14:36:54;98886.13;;;26.73
15144;BMP180;7672;50.834;6.286;2023-07-31T14:39:21;98881.63;;;26.64